Time;durP1;ratioP1;P1;durP2;ratioP2;P2;SDS_P1;SDS_P2;PMS_P1;PMS_P2;Temp;Humidity;BMP_temperature;BMP_pressure;BME280_temperature;BME280_humidity;BME280_pressure;Samples;Min_cycle;Max_cycle;Signal;HPM_P1;HPM_P2
2022/10/20 00:01:54;;;;;;;;;;;;;;;5.80;79.81;101595.91;5069876;28;1158;-78
2022/10/20 00:04:20;;;;;;;;;;;;;;;5.80;79.88;101588.72;5052586;28;1837;-78
2022/10/20 00:06:47;;;;;;;;;;;;;;;5.79;79.61;101584.34;5059430;28;1652;-78
2022/10/20 00:09:13;;;;;;;;;;;;;;;5.79;79.75;101592.38;5076482;28;1914;-79
2022/10/20 00:11:39;;;;;;;;;;;;;;;5.80;79.73;101593.22;5061782;28;1159;-78
2022/10/20 00:14:05;;;;;;;;;;;;;;;5.80;79.42;101578.03;5059718;28;1472;-78
2022/10/20 00:16:32;;;;;;;;;;;;;;;5.78;79.77;101579.19;5058311;28;2108;-78
2022/10/20 00:18:58;;;;;;;;;;;;;;;5.74;79.71;101577.84;5072098;28;1176;-77
2022/10/20 00:21:24;;;;;;;;;;;;;;;5.75;79.53;101577.66;5060902;28;1144;-78
2022/10/20 00:23:50;;;;;;;;;;;;;;;5.76;79.53;101586.50;5045918;28;1915;-78
2022/10/20 00:26:17;;;;;;;;;;;;;;;5.73;79.43;101578.81;5060599;28;1553;-80
2022/10/20 00:28:43;;;;;;;;;;;;;;;5.73;79.53;101576.16;5058488;28;2092;-77
2022/10/20 00:31:09;;;;;;;;;;;;;;;5.70;79.51;101577.31;5056945;28;2012;-79
2022/10/20 00:33:35;;;;;;;;;;;;;;;5.70;79.61;101572.78;5061121;28;1888;-78
2022/10/20 00:36:02;;;;;;;;;;;;;;;5.68;79.42;101580.16;5060412;28;1239;-79
2022/10/20 00:38:28;;;;;;;;;;;;;;;5.68;79.53;101569.47;5057303;28;1588;-78
2022/10/20 00:40:54;;;;;;;;;;;;;;;5.71;79.46;101570.97;5059776;28;1560;-78
2022/10/20 00:43:20;;;;;;;;;;;;;;;5.71;79.36;101570.97;5063680;28;1675;-79
2022/10/20 00:45:47;;;;;;;;;;;;;;;5.76;79.23;101573.16;5055116;28;1655;-78
2022/10/20 00:48:13;;;;;;;;;;;;;;;5.70;79.50;101570.13;5051298;28;2007;-78
2022/10/20 00:50:40;;;;;;;;;;;;;;;5.69;79.41;101572.97;5074178;28;1552;-78
2022/10/20 00:53:06;;;;;;;;;;;;;;;5.69;79.48;101571.13;5045842;28;2043;-77
2022/10/20 00:55:33;;;;;;;;;;;;;;;5.66;79.18;101574.13;5041623;28;1900;-77
2022/10/20 00:57:59;;;;;;;;;;;;;;;5.63;79.48;101576.28;5041065;28;1587;-79
2022/10/20 01:00:25;;;;;;;;;;;;;;;5.66;79.16;101574.13;5041066;28;1622;-79
2022/10/20 01:02:51;;;;;;;;;;;;;;;5.62;79.41;101575.47;5040252;28;1832;-79
2022/10/20 01:05:18;;;;;;;;;;;;;;;5.62;79.57;101583.47;5045172;28;2311;-78
2022/10/20 01:07:44;;;;;;;;;;;;;;;5.66;79.18;101587.50;5042843;28;2008;-78
2022/10/20 01:10:10;;;;;;;;;;;;;;;5.63;79.51;101603.03;5043654;28;2062;-77
2022/10/20 01:12:36;;;;;;;;;;;;;;;5.59;79.47;101589.16;5041972;28;1585;-78
2022/10/20 01:15:03;;;;;;;;;;;;;;;5.60;79.27;101589.97;5051843;28;1596;-79
2022/10/20 01:17:29;;;;;;;;;;;;;;;5.61;79.31;101583.63;5037785;28;1875;-77
2022/10/20 01:19:55;;;;;;;;;;;;;;;5.63;79.36;101576.28;5036004;28;1895;-78
2022/10/20 01:22:22;;;;;;;;;;;;;;;5.59;79.11;101570.44;5037618;28;1460;-79
2022/10/20 01:24:48;;;;;;;;;;;;;;;5.57;79.39;101567.09;5040718;28;1471;-78
2022/10/20 01:27:14;;;;;;;;;;;;;;;5.60;79.36;101568.59;5038717;28;1766;-77
2022/10/20 01:29:40;;;;;;;;;;;;;;;5.57;79.43;101560.91;5037910;28;1914;-77
2022/10/20 01:32:07;;;;;;;;;;;;;;;5.56;79.43;101557.41;5039145;28;1537;-76
2022/10/20 01:34:33;;;;;;;;;;;;;;;5.56;79.26;101554.75;5022959;28;1491;-77
2022/10/20 01:36:59;;;;;;;;;;;;;;;5.54;79.29;101554.06;5039945;28;1449;-79
2022/10/20 01:39:25;;;;;;;;;;;;;;;5.53;79.35;101544.38;5030892;28;1612;-79
2022/10/20 01:41:52;;;;;;;;;;;;;;;5.53;79.41;101540.84;5047401;28;1834;-79
2022/10/20 01:44:18;;;;;;;;;;;;;;;5.52;79.22;101549.88;5054917;28;2031;-79
2022/10/20 01:46:44;;;;;;;;;;;;;;;5.52;79.43;101553.38;5053065;28;1975;-79
2022/10/20 01:49:10;;;;;;;;;;;;;;;5.51;79.34;101549.03;5072500;28;1894;-79
2022/10/20 01:51:37;;;;;;;;;;;;;;;5.52;79.33;101549.88;5041767;28;1899;-79
2022/10/20 01:54:03;;;;;;;;;;;;;;;5.52;79.58;101547.19;5037214;28;1599;-78
2022/10/20 01:56:29;;;;;;;;;;;;;;;5.53;79.29;101548.84;5041425;28;1817;-78
2022/10/20 01:58:55;;;;;;;;;;;;;;;5.52;79.21;101540.00;5040684;28;1496;-79
2022/10/20 02:01:22;;;;;;;;;;;;;;;5.50;79.35;101546.50;5038050;28;1753;-79
2022/10/20 02:03:48;;;;;;;;;;;;;;;5.49;79.26;101545.69;5042294;28;1502;-79
2022/10/20 02:06:14;;;;;;;;;;;;;;;5.50;79.31;101538.50;5045706;28;1584;-78
2022/10/20 02:08:40;;;;;;;;;;;;;;;5.47;79.03;101542.31;5040426;28;1934;-79
2022/10/20 02:11:07;;;;;;;;;;;;;;;5.46;79.05;101543.34;5038880;28;1836;-78
2022/10/20 02:13:33;;;;;;;;;;;;;;;5.45;79.25;101547.00;5046551;28;1544;-78
2022/10/20 02:16:00;;;;;;;;;;;;;;;5.43;79.27;101547.16;5041612;28;1496;-78
2022/10/20 02:18:26;;;;;;;;;;;;;;;5.51;79.29;101549.03;5037946;28;1752;-78
2022/10/20 02:20:52;;;;;;;;;;;;;;;5.44;79.17;101543.50;5038088;28;1809;-78
2022/10/20 02:23:18;;;;;;;;;;;;;;;5.43;79.21;101540.97;5038952;28;1785;-78
2022/10/20 02:25:45;;;;;;;;;;;;;;;5.43;79.10;101535.63;5042052;28;1561;-77
2022/10/20 02:28:11;;;;;;;;;;;;;;;5.42;79.27;101525.97;5037311;28;1979;-79
2022/10/20 02:30:37;;;;;;;;;;;;;;;5.41;79.24;101532.28;5037183;28;1666;-78
2022/10/20 02:33:03;;;;;;;;;;;;;;;4.90;79.12;101454.81;5039305;28;1910;-78
2022/10/20 02:35:30;;;;;;;;;;;;;;;5.44;78.97;101535.50;5044070;28;1490;-77
2022/10/20 02:37:56;;;;;;;;;;;;;;;5.45;79.05;101541.66;5042184;28;2116;-77
2022/10/20 02:40:22;;;;;;;;;;;;;;;5.42;79.12;101537.47;5038516;28;1592;-79
2022/10/20 02:42:49;;;;;;;;;;;;;;;5.39;79.19;101536.97;5037245;28;1804;-77
2022/10/20 02:45:15;;;;;;;;;;;;;;;5.40;79.29;101535.97;5039233;28;1525;-79
2022/10/20 02:47:41;;;;;;;;;;;;;;;5.38;79.02;101541.50;5038375;28;1470;-78
2022/10/20 02:50:07;;;;;;;;;;;;;;;5.37;79.19;101531.78;5042908;28;1921;-78
2022/10/20 02:52:34;;;;;;;;;;;;;;;5.42;79.05;101531.31;5037868;28;1620;-78
2022/10/20 02:55:00;;;;;;;;;;;;;;;5.37;79.12;101526.44;5023064;28;1768;-78
2022/10/20 02:57:26;;;;;;;;;;;;;;;5.39;78.95;101532.47;5036625;28;1928;-79
2022/10/20 02:59:52;;;;;;;;;;;;;;;5.37;79.05;101534.44;5035894;28;1869;-78
2022/10/20 03:02:19;;;;;;;;;;;;;;;5.36;79.11;101530.13;5036215;28;1426;-77
2022/10/20 03:04:45;;;;;;;;;;;;;;;5.35;79.03;101530.25;5046244;28;1652;-79
2022/10/20 03:07:11;;;;;;;;;;;;;;;5.33;79.27;101527.78;5037304;28;1760;-79
2022/10/20 03:09:37;;;;;;;;;;;;;;;5.34;79.13;101536.63;5034426;28;1906;-79
2022/10/20 03:12:04;;;;;;;;;;;;;;;5.33;79.03;101537.63;5023069;28;1672;-78
2022/10/20 03:14:30;;;;;;;;;;;;;;;5.35;78.87;101536.44;5047691;28;1517;-78
2022/10/20 03:16:56;;;;;;;;;;;;;;;5.33;79.08;101541.13;5037531;28;1853;-78
2022/10/20 03:19:22;;;;;;;;;;;;;;;5.31;79.07;101537.78;5040545;28;1875;-78
2022/10/20 03:21:49;;;;;;;;;;;;;;;5.31;79.10;101536.94;5038756;28;1528;-78
2022/10/20 03:24:15;;;;;;;;;;;;;;;5.37;78.80;101530.94;5020212;28;1847;-78
2022/10/20 03:26:41;;;;;;;;;;;;;;;5.32;78.98;101531.41;5036508;28;1804;-78
2022/10/20 03:29:08;;;;;;;;;;;;;;;5.34;78.96;101525.94;5039158;28;1910;-78
2022/10/20 03:31:34;;;;;;;;;;;;;;;5.32;79.14;101527.91;5038056;28;1437;-77
2022/10/20 03:34:00;;;;;;;;;;;;;;;5.30;78.98;101528.09;5023438;28;1486;-78
2022/10/20 03:36:26;;;;;;;;;;;;;;;5.31;78.95;101529.75;5036035;28;1828;-78
2022/10/20 03:38:53;;;;;;;;;;;;;;;5.29;78.94;101534.41;5037610;28;1516;-77
2022/10/20 03:41:19;;;;;;;;;;;;;;;5.30;79.00;101529.94;5020429;28;1810;-77
2022/10/20 03:43:45;;;;;;;;;;;;;;;5.28;78.93;101527.41;5038370;28;1522;-77
2022/10/20 03:46:11;;;;;;;;;;;;;;;5.31;78.93;101523.59;5036454;28;1825;-77
2022/10/20 03:48:38;;;;;;;;;;;;;;;5.29;79.02;101521.06;5021747;28;1918;-76
2022/10/20 03:51:04;;;;;;;;;;;;;;;5.30;78.93;101516.56;5041682;28;1445;-75
2022/10/20 03:53:30;;;;;;;;;;;;;;;5.29;78.80;101514.88;5041519;28;1690;-77
2022/10/20 03:55:56;;;;;;;;;;;;;;;5.28;79.06;101518.56;5034834;28;1882;-78
2022/10/20 03:58:23;;;;;;;;;;;;;;;5.27;79.07;101527.59;5041426;28;1489;-77
2022/10/20 04:00:49;;;;;;;;;;;;;;;5.23;79.07;101514.56;5036880;28;1514;-77
2022/10/20 04:03:15;;;;;;;;;;;;;;;5.26;78.99;101520.56;5037556;28;1758;-78
2022/10/20 04:05:41;;;;;;;;;;;;;;;5.23;79.10;101525.25;5048874;28;1643;-77
2022/10/20 04:08:08;;;;;;;;;;;;;;;5.24;79.10;101520.72;5035006;28;1477;-78
2022/10/20 04:10:34;;;;;;;;;;;;;;;5.25;78.87;101525.06;5037184;28;1907;-75
2022/10/20 04:13:02;;;;;;;;;;;;;;;5.27;78.88;101509.72;5037064;28;1534;-76
2022/10/20 04:15:28;;;;;;;;;;;;;;;5.24;78.91;101504.69;5040234;28;1880;-77
2022/10/20 04:17:54;;;;;;;;;;;;;;;5.24;78.96;101497.53;5039774;28;1759;-77
2022/10/20 04:20:21;;;;;;;;;;;;;;;5.22;78.87;101490.66;5039257;28;1528;-78
2022/10/20 04:22:47;;;;;;;;;;;;;;;5.21;78.98;101486.31;5041941;28;1601;-78
2022/10/20 04:25:13;;;;;;;;;;;;;;;5.21;78.91;101489.00;5036128;28;1468;-78
2022/10/20 04:27:39;;;;;;;;;;;;;;;5.19;78.93;101499.00;5037184;28;2131;-78
2022/10/20 04:30:06;;;;;;;;;;;;;;;5.20;78.90;101481.97;5035879;28;1973;-79
2022/10/20 04:32:32;;;;;;;;;;;;;;;5.20;78.96;101484.63;5032957;28;1818;-79
2022/10/20 04:34:58;;;;;;;;;;;;;;;5.20;79.00;101488.13;5040218;28;2051;-78
2022/10/20 04:37:25;;;;;;;;;;;;;;;5.19;78.85;101497.16;5038719;28;1755;-78
2022/10/20 04:39:51;;;;;;;;;;;;;;;5.21;78.78;101495.16;5041959;28;1829;-77
2022/10/20 04:42:18;;;;;;;;;;;;;;;5.20;78.86;101506.00;5040698;28;1410;-77
2022/10/20 04:44:44;;;;;;;;;;;;;;;5.17;79.05;101509.81;5040408;28;1454;-77
2022/10/20 04:47:10;;;;;;;;;;;;;;;5.16;78.99;101505.50;5035739;28;1872;-78
2022/10/20 04:49:36;;;;;;;;;;;;;;;5.17;78.93;101512.50;5036216;28;1989;-78
2022/10/20 04:52:03;;;;;;;;;;;;;;;5.19;78.81;101517.69;5043707;28;1497;-78
2022/10/20 04:54:29;;;;;;;;;;;;;;;5.16;79.07;101512.69;5040031;28;1945;-78
2022/10/20 04:56:55;;;;;;;;;;;;;;;5.15;79.09;101501.16;5039239;28;1929;-79
2022/10/20 04:59:21;;;;;;;;;;;;;;;5.19;78.84;101501.66;5040390;28;1681;-78
2022/10/20 05:01:48;;;;;;;;;;;;;;;5.16;78.84;101500.16;5040864;28;1642;-79
2022/10/20 05:04:19;;;;;;;;;;;;;;;5.15;78.95;101498.50;5040401;28;1580;-78
2022/10/20 05:06:46;;;;;;;;;;;;;;;5.16;78.82;101486.81;5041871;28;1989;-78
2022/10/20 05:09:12;;;;;;;;;;;;;;;5.15;78.93;101490.47;5037894;28;1960;-78
2022/10/20 05:11:39;;;;;;;;;;;;;;;5.13;78.88;101492.47;5048778;28;1627;-78
2022/10/20 05:14:06;;;;;;;;;;;;;;;5.14;78.94;101495.97;5055483;28;1706;-79
2022/10/20 05:16:32;;;;;;;;;;;;;;;5.13;78.95;101496.97;5055438;28;1837;-78
2022/10/20 05:18:58;;;;;;;;;;;;;;;5.13;78.85;101483.63;5047708;28;1636;-77
2022/10/20 05:21:24;;;;;;;;;;;;;;;5.13;78.83;101475.63;5055457;28;1767;-77
2022/10/20 05:23:51;;;;;;;;;;;;;;;5.12;79.06;101482.78;5054128;28;1816;-77
2022/10/20 05:26:17;;;;;;;;;;;;;;;5.12;78.93;101471.28;5056496;28;1903;-79
2022/10/20 05:28:43;;;;;;;;;;;;;;;5.12;79.02;101464.09;5055176;28;1904;-79
2022/10/20 05:31:09;;;;;;;;;;;;;;;5.13;78.80;101463.09;5043224;28;1936;-78
2022/10/20 05:33:36;;;;;;;;;;;;;;;5.11;78.79;101465.06;5055038;28;1401;-79
2022/10/20 05:36:02;;;;;;;;;;;;;;;5.11;79.10;101465.06;5055508;28;1824;-79
2022/10/20 05:38:28;;;;;;;;;;;;;;;5.10;79.09;101465.25;5052764;28;1679;-79
2022/10/20 05:40:54;;;;;;;;;;;;;;;5.13;78.81;101472.94;5056030;28;1617;-77
2022/10/20 05:43:21;;;;;;;;;;;;;;;5.10;78.99;101467.91;5068650;28;1191;-78
2022/10/20 05:45:47;;;;;;;;;;;;;;;5.12;78.76;101471.28;5054963;28;1627;-78
2022/10/20 05:48:13;;;;;;;;;;;;;;;5.13;78.55;101467.59;5040583;28;1773;-78
2022/10/20 05:50:39;;;;;;;;;;;;;;;5.13;78.94;101465.75;5056562;28;1918;-78
2022/10/20 05:53:06;;;;;;;;;;;;;;;5.10;78.92;101473.25;5042280;28;1215;-78
2022/10/20 05:55:32;;;;;;;;;;;;;;;5.09;78.87;101460.88;5038912;28;1965;-78
2022/10/20 05:57:58;;;;;;;;;;;;;;;5.08;79.06;101453.88;5053411;28;1821;-79
2022/10/20 06:00:29;;;;;;;;;;;;;;;5.07;79.04;101454.91;5050684;28;2043;-78
2022/10/20 06:02:55;;;;;;;;;;;;;;;5.06;78.96;101437.19;5055493;28;2063;-77
2022/10/20 06:05:22;;;;;;;;;;;;;;;5.06;78.85;101439.84;5069501;28;1294;-78
2022/10/20 06:07:48;;;;;;;;;;;;;;;5.06;78.89;101458.53;5029376;28;1663;-77
2022/10/20 06:10:14;;;;;;;;;;;;;;;5.06;78.90;101453.19;5053114;28;1958;-79
2022/10/20 06:12:41;;;;;;;;;;;;;;;5.05;78.93;101438.19;5052594;28;2068;-78
2022/10/20 06:15:07;;;;;;;;;;;;;;;5.05;78.82;101460.38;5041871;28;1777;-78
2022/10/20 06:17:33;;;;;;;;;;;;;;;5.05;78.89;101455.03;5036645;28;1814;-78
2022/10/20 06:19:59;;;;;;;;;;;;;;;5.03;78.78;101449.06;5018595;28;1817;-78
2022/10/20 06:22:26;;;;;;;;;;;;;;;5.04;78.79;101437.34;5039563;28;1847;-78
2022/10/20 06:24:52;;;;;;;;;;;;;;;5.05;78.95;101440.84;5041334;28;1627;-78
2022/10/20 06:27:18;;;;;;;;;;;;;;;5.06;78.84;101445.19;5037503;28;1571;-79
2022/10/20 06:29:45;;;;;;;;;;;;;;;5.03;78.82;101443.72;5037161;28;1914;-78
2022/10/20 06:32:11;;;;;;;;;;;;;;;5.05;78.79;101449.69;5038788;28;1843;-77
2022/10/20 06:34:37;;;;;;;;;;;;;;;5.01;78.97;101451.88;5037163;28;1726;-78
2022/10/20 06:37:03;;;;;;;;;;;;;;;5.02;78.81;101450.03;5039935;28;1601;-79
2022/10/20 06:39:30;;;;;;;;;;;;;;;5.01;78.95;101446.53;5036652;28;1474;-78
2022/10/20 06:41:56;;;;;;;;;;;;;;;5.03;78.95;101453.53;5038140;28;1932;-78
2022/10/20 06:44:22;;;;;;;;;;;;;;;5.01;78.76;101457.22;5037521;28;1761;-79
2022/10/20 06:46:51;;;;;;;;;;;;;;;5.01;78.88;101457.22;5039553;28;1770;-78
2022/10/20 06:49:17;;;;;;;;;;;;;;;5.00;78.90;101458.22;5035625;28;2138;-78
2022/10/20 06:51:43;;;;;;;;;;;;;;;5.03;78.72;101450.84;5023104;28;2077;-78
2022/10/20 06:54:09;;;;;;;;;;;;;;;5.00;78.82;101463.56;5041792;28;1944;-78
2022/10/20 06:56:36;;;;;;;;;;;;;;;5.00;78.78;101463.56;5040567;28;1544;-79
2022/10/20 06:59:02;;;;;;;;;;;;;;;5.01;78.89;101464.38;5038612;28;1713;-76
2022/10/20 07:01:28;;;;;;;;;;;;;;;4.99;78.85;101464.53;5041915;28;1499;-79
2022/10/20 07:03:54;;;;;;;;;;;;;;;5.02;78.92;101460.72;5036400;28;1978;-78
2022/10/20 07:06:21;;;;;;;;;;;;;;;5.00;78.78;101468.06;5039582;28;1647;-78
2022/10/20 07:08:47;;;;;;;;;;;;;;;4.99;78.72;101467.19;5039952;28;1939;-78
2022/10/20 07:11:13;;;;;;;;;;;;;;;4.98;78.90;101467.38;5039748;28;1979;-76
2022/10/20 07:13:40;;;;;;;;;;;;;;;4.98;78.81;101465.53;5037252;28;1497;-78
2022/10/20 07:16:06;;;;;;;;;;;;;;;4.98;78.78;101470.03;5039938;28;1644;-78
2022/10/20 07:18:32;;;;;;;;;;;;;;;4.98;78.92;101462.03;5039492;28;1870;-78
2022/10/20 07:20:58;;;;;;;;;;;;;;;4.97;79.13;101471.03;5038605;28;2017;-79
2022/10/20 07:23:25;;;;;;;;;;;;;;;4.99;78.97;101459.19;5040235;28;1493;-77
2022/10/20 07:25:51;;;;;;;;;;;;;;;4.98;78.83;101456.69;5039999;28;1676;-77
2022/10/20 07:28:20;;;;;;;;;;;;;;;4.97;78.91;101463.00;5044555;28;1738;-77
2022/10/20 07:30:46;;;;;;;;;;;;;;;4.98;78.77;101470.03;5032468;28;1919;-79
2022/10/20 07:33:13;;;;;;;;;;;;;;;4.97;78.83;101465.69;5039797;28;1625;-79
2022/10/20 07:35:39;;;;;;;;;;;;;;;4.98;78.72;101472.72;5038032;28;1649;-78
2022/10/20 07:38:05;;;;;;;;;;;;;;;4.99;78.84;101474.38;5038821;28;2122;-78
2022/10/20 07:40:32;;;;;;;;;;;;;;;4.97;78.89;101477.22;5024243;28;1653;-78
2022/10/20 07:42:58;;;;;;;;;;;;;;;4.96;78.97;101480.88;5038849;28;1851;-79
2022/10/20 07:45:24;;;;;;;;;;;;;;;4.95;78.88;101473.88;5037241;28;1531;-77
2022/10/20 07:47:50;;;;;;;;;;;;;;;4.94;78.97;101474.88;5039858;28;1902;-78
2022/10/20 07:50:17;;;;;;;;;;;;;;;4.95;78.70;101479.22;5042325;28;1967;-78
2022/10/20 07:52:43;;;;;;;;;;;;;;;4.96;78.76;101474.69;5038364;28;1600;-77
2022/10/20 07:55:10;;;;;;;;;;;;;;;4.94;78.69;101477.53;5050848;28;1548;-78
2022/10/20 07:57:36;;;;;;;;;;;;;;;4.93;78.82;101480.38;5053722;28;1926;-79
2022/10/20 08:00:02;;;;;;;;;;;;;;;4.96;78.79;101480.88;5062019;28;2424;-79
2022/10/20 08:02:28;;;;;;;;;;;;;;;4.94;78.74;101482.03;5050065;28;1607;-79
2022/10/20 08:04:55;;;;;;;;;;;;;;;4.94;78.76;101476.69;5038699;28;1554;-79
2022/10/20 08:07:21;;;;;;;;;;;;;;;4.93;78.73;101475.03;5053902;28;1813;-79
2022/10/20 08:09:47;;;;;;;;;;;;;;;4.92;78.78;101463.50;5045195;28;1969;-79
2022/10/20 08:12:13;;;;;;;;;;;;;;;4.93;78.78;101465.19;5041398;28;1661;-79
2022/10/20 08:14:40;;;;;;;;;;;;;;;4.98;78.69;101470.03;5049392;28;1608;-79
2022/10/20 08:17:06;;;;;;;;;;;;;;;4.94;78.76;101464.19;5041035;28;3026;-79
2022/10/20 08:19:32;;;;;;;;;;;;;;;4.93;78.81;101461.69;5040736;28;3276;-78
2022/10/20 08:21:59;;;;;;;;;;;;;;;4.94;78.88;101460.66;5041652;28;4817;-78
2022/10/20 08:24:25;;;;;;;;;;;;;;;4.93;78.81;101465.19;5057394;28;4551;-77
2022/10/20 08:26:51;;;;;;;;;;;;;;;4.94;78.73;101464.19;5061765;28;2885;-77
2022/10/20 08:29:17;;;;;;;;;;;;;;;4.96;78.85;101474.69;5061356;28;4970;-78
2022/10/20 08:31:44;;;;;;;;;;;;;;;4.95;78.81;101468.53;5059306;28;3951;-78
2022/10/20 08:34:10;;;;;;;;;;;;;;;4.92;78.95;101458.19;5057827;28;4114;-79
2022/10/20 08:36:36;;;;;;;;;;;;;;;4.93;78.68;101459.84;5049179;28;2001;-78
2022/10/20 08:39:03;;;;;;;;;;;;;;;4.92;78.70;101462.69;5041600;28;4403;-78
2022/10/20 08:41:29;;;;;;;;;;;;;;;4.92;78.83;101455.50;5042568;28;4600;-79
2022/10/20 08:43:55;;;;;;;;;;;;;;;4.94;78.67;101452.66;5040370;28;1882;-78
2022/10/20 08:46:21;;;;;;;;;;;;;;;4.94;78.72;101453.53;5053685;28;1875;-78
2022/10/20 08:48:48;;;;;;;;;;;;;;;4.92;78.50;101454.69;5043206;28;1992;-77
2022/10/20 08:51:14;;;;;;;;;;;;;;;4.94;78.63;101452.66;5033634;28;2082;-76
2022/10/20 08:53:40;;;;;;;;;;;;;;;4.91;78.92;101439.63;5055749;28;2032;-77
2022/10/20 08:56:07;;;;;;;;;;;;;;;4.93;78.71;101440.31;5041309;28;1854;-76
2022/10/20 08:58:33;;;;;;;;;;;;;;;4.91;78.69;101437.81;5054175;28;1818;-78
2022/10/20 09:00:59;;;;;;;;;;;;;;;4.93;78.85;101449.16;5074264;28;1147;-77
2022/10/20 09:03:26;;;;;;;;;;;;;;;4.92;78.96;101442.16;5054880;28;1808;-77
2022/10/20 09:05:52;;;;;;;;;;;;;;;4.92;78.66;101446.66;5061048;28;1395;-75
2022/10/20 09:08:19;;;;;;;;;;;;;;;4.93;78.84;101451.00;5066787;28;1466;-78
2022/10/20 09:10:45;;;;;;;;;;;;;;;4.94;78.72;101456.19;5046174;28;4790;-77
2022/10/20 09:13:12;;;;;;;;;;;;;;;4.94;78.64;101463.34;5045615;28;2113;-78
2022/10/20 09:15:38;;;;;;;;;;;;;;;4.91;78.74;101464.53;5056526;28;1440;-77
2022/10/20 09:18:05;;;;;;;;;;;;;;;4.93;78.64;101470.50;5066796;28;2893;-77
2022/10/20 09:20:31;;;;;;;;;;;;;;;4.92;78.77;101470.69;5065893;28;1485;-77
2022/10/20 09:22:58;;;;;;;;;;;;;;;4.92;78.67;101463.50;5054756;28;1555;-78
2022/10/20 09:25:26;;;;;;;;;;;;;;;4.93;78.88;101467.00;5058354;28;1575;-79
2022/10/20 09:27:52;;;;;;;;;;;;;;;4.92;78.66;101460.84;5052079;28;3028;-78
2022/10/20 09:30:18;;;;;;;;;;;;;;;4.92;78.71;101457.34;5043628;28;2855;-75
2022/10/20 09:32:45;;;;;;;;;;;;;;;4.94;78.74;101458.84;5053448;28;1949;-78
2022/10/20 09:35:11;;;;;;;;;;;;;;;4.92;78.72;101450.16;5050024;28;2374;-78
2022/10/20 09:37:37;;;;;;;;;;;;;;;4.91;78.87;101443.16;5032721;28;2148;-77
2022/10/20 09:40:04;;;;;;;;;;;;;;;4.91;78.73;101442.31;5035399;28;1764;-76
2022/10/20 09:42:30;;;;;;;;;;;;;;;4.93;78.80;101454.50;5028589;28;2050;-77
2022/10/20 09:44:56;;;;;;;;;;;;;;;4.93;78.78;101451.81;5034594;28;1842;-77
2022/10/20 09:47:23;;;;;;;;;;;;;;;4.93;78.78;101449.16;5033280;28;2151;-77
2022/10/20 09:49:49;;;;;;;;;;;;;;;4.93;78.78;101445.66;5026943;28;1652;-78
2022/10/20 09:52:15;;;;;;;;;;;;;;;4.92;78.69;101436.81;5042583;28;1975;-76
2022/10/20 09:54:41;;;;;;;;;;;;;;;4.94;78.67;101434.84;5030449;28;1631;-78
2022/10/20 09:57:08;;;;;;;;;;;;;;;4.94;78.73;101445.50;5051201;28;1933;-77
2022/10/20 09:59:34;;;;;;;;;;;;;;;4.93;78.64;101438.47;5036408;28;2220;-77
2022/10/20 10:02:00;;;;;;;;;;;;;;;4.93;78.63;101425.13;5020186;28;1644;-77
2022/10/20 10:04:27;;;;;;;;;;;;;;;4.94;78.94;101428.63;5020755;28;1518;-77
2022/10/20 10:06:53;;;;;;;;;;;;;;;4.93;78.81;101427.81;5033685;28;3793;-77
2022/10/20 10:09:19;;;;;;;;;;;;;;;4.93;78.68;101419.78;5020466;28;3830;-78
2022/10/20 10:11:46;;;;;;;;;;;;;;;4.94;78.74;101432.16;5023642;28;1914;-80
2022/10/20 10:14:12;;;;;;;;;;;;;;;4.94;78.67;101425.97;5048365;28;2998;-78
2022/10/20 10:16:38;;;;;;;;;;;;;;;4.94;78.95;101434.84;5028443;28;2323;-77
2022/10/20 10:19:04;;;;;;;;;;;;;;;4.94;78.80;101425.97;5041135;28;2161;-77
2022/10/20 10:21:31;;;;;;;;;;;;;;;4.94;78.73;101423.28;5040495;28;2319;-77
2022/10/20 10:23:57;;;;;;;;;;;;;;;4.96;78.55;101423.97;5049381;28;1750;-77
2022/10/20 10:26:23;;;;;;;;;;;;;;;4.96;78.52;101415.97;5051274;28;3100;-78
2022/10/20 10:28:49;;;;;;;;;;;;;;;4.95;78.88;101417.81;5032754;28;1985;-78
2022/10/20 10:31:16;;;;;;;;;;;;;;;4.96;78.80;101413.28;5034461;28;1963;-78
2022/10/20 10:33:42;;;;;;;;;;;;;;;4.97;78.78;101413.16;5047922;28;1766;-78
2022/10/20 10:36:08;;;;;;;;;;;;;;;4.97;78.67;101406.94;5052896;28;1101;-78
2022/10/20 10:38:34;;;;;;;;;;;;;;;4.98;78.63;101403.31;5037499;28;2790;-78
2022/10/20 10:41:01;;;;;;;;;;;;;;;5.00;78.72;101390.63;5066011;28;2018;-78
2022/10/20 10:43:29;;;;;;;;;;;;;;;4.98;78.92;101392.63;5055839;28;1709;-78
2022/10/20 10:45:58;;;;;;;;;;;;;;;4.99;78.79;101391.63;5062499;28;2050;-79
2022/10/20 10:48:24;;;;;;;;;;;;;;;4.99;78.83;101384.44;5058433;28;1682;-76
2022/10/20 10:50:51;;;;;;;;;;;;;;;4.99;79.05;101383.59;5049996;28;1979;-77
2022/10/20 10:53:17;;;;;;;;;;;;;;;5.00;78.83;101388.78;5056501;28;1309;-76
2022/10/20 10:55:43;;;;;;;;;;;;;;;4.99;78.87;101376.44;5041586;28;2124;-78
2022/10/20 10:58:10;;;;;;;;;;;;;;;5.05;78.68;101384.78;5061540;28;1498;-77
2022/10/20 11:00:36;;;;;;;;;;;;;;;5.02;78.75;101383.28;5050348;28;2416;-76
2022/10/20 11:03:02;;;;;;;;;;;;;;;5.04;78.75;101386.63;5059350;28;2246;-78
2022/10/20 11:05:29;;;;;;;;;;;;;;;5.05;78.71;101388.28;5053063;28;1386;-77
2022/10/20 11:07:55;;;;;;;;;;;;;;;5.05;78.68;101380.28;5053175;28;1647;-77
2022/10/20 11:10:21;;;;;;;;;;;;;;;5.04;78.71;101380.47;5059663;28;2077;-78
2022/10/20 11:12:47;;;;;;;;;;;;;;;5.05;78.68;101376.78;5061408;28;1910;-78
2022/10/20 11:15:14;;;;;;;;;;;;;;;5.05;78.71;101371.44;5059955;28;1448;-78
2022/10/20 11:17:40;;;;;;;;;;;;;;;5.06;78.70;101373.09;5062093;28;1528;-78
2022/10/20 11:20:06;;;;;;;;;;;;;;;5.06;78.75;101367.75;5059448;28;2002;-79
2022/10/20 11:22:32;;;;;;;;;;;;;;;5.07;78.61;101364.94;5048334;28;1742;-79
2022/10/20 11:24:59;;;;;;;;;;;;;;;5.07;78.80;101374.78;5071875;28;1310;-76
2022/10/20 11:27:25;;;;;;;;;;;;;;;5.08;78.72;101366.59;5070027;28;1828;-77
2022/10/20 11:29:51;;;;;;;;;;;;;;;5.09;78.86;101367.44;5037686;28;1959;-77
2022/10/20 11:32:17;;;;;;;;;;;;;;;5.08;78.66;101363.09;5040385;28;1910;-79
2022/10/20 11:34:44;;;;;;;;;;;;;;;5.13;78.76;101363.44;5045990;28;2029;-77
2022/10/20 11:37:10;;;;;;;;;;;;;;;5.10;78.86;101364.63;5032877;28;1642;-75
2022/10/20 11:39:36;;;;;;;;;;;;;;;5.11;78.75;101360.09;5034099;28;1863;-77
2022/10/20 11:42:02;;;;;;;;;;;;;;;5.13;78.61;101353.59;5018792;28;1111;-76
2022/10/20 11:44:29;;;;;;;;;;;;;;;5.15;78.64;101350.78;5047417;28;1289;-76
2022/10/20 11:46:55;;;;;;;;;;;;;;;5.13;78.75;101352.78;5034128;28;1160;-77
2022/10/20 11:49:21;;;;;;;;;;;;;;;5.14;78.57;101347.25;5032925;28;1980;-77
2022/10/20 11:51:48;;;;;;;;;;;;;;;5.14;78.79;101351.75;5027144;28;2119;-78
2022/10/20 11:54:14;;;;;;;;;;;;;;;5.15;78.82;101348.09;5041782;28;2553;-78
2022/10/20 11:56:40;;;;;;;;;;;;;;;5.17;78.81;101354.09;5029680;28;2602;-78
2022/10/20 11:59:06;;;;;;;;;;;;;;;5.20;78.63;101349.25;5037908;28;956;-78
2022/10/20 12:01:33;;;;;;;;;;;;;;;5.18;78.70;101348.59;5027069;28;2105;-78
2022/10/20 12:03:59;;;;;;;;;;;;;;;5.20;78.59;101354.59;5034675;28;1147;-77
2022/10/20 12:06:25;;;;;;;;;;;;;;;5.17;78.79;101352.25;5049603;28;1119;-78
2022/10/20 12:08:51;;;;;;;;;;;;;;;5.18;78.52;101347.78;5032776;28;2165;-78
2022/10/20 12:11:18;;;;;;;;;;;;;;;5.19;78.94;101344.94;5030111;28;2091;-78
2022/10/20 12:13:44;;;;;;;;;;;;;;;5.21;78.58;101344.78;5043058;28;2205;-78
2022/10/20 12:16:10;;;;;;;;;;;;;;;5.20;78.94;101343.09;5045453;28;2192;-76
2022/10/20 12:18:37;;;;;;;;;;;;;;;5.32;78.25;101332.91;5029986;28;2352;-78
2022/10/20 12:21:03;;;;;;;;;;;;;;;5.24;78.64;101323.06;5032612;28;2012;-77
2022/10/20 12:23:29;;;;;;;;;;;;;;;5.21;78.78;101326.09;5027403;28;2125;-78
2022/10/20 12:25:55;;;;;;;;;;;;;;;5.22;78.94;101325.91;5032485;28;1788;-79
2022/10/20 12:28:22;;;;;;;;;;;;;;;5.21;78.87;101334.94;5031311;28;1586;-78
2022/10/20 12:30:48;;;;;;;;;;;;;;;5.25;78.66;101327.41;5022268;28;2065;-76
2022/10/20 12:33:14;;;;;;;;;;;;;;;5.23;78.89;101330.25;5030819;28;1896;-76
2022/10/20 12:35:40;;;;;;;;;;;;;;;5.25;78.71;101335.41;5044475;28;1904;-78
2022/10/20 12:38:07;;;;;;;;;;;;;;;5.26;78.70;101331.75;5042648;28;4126;-78
2022/10/20 12:40:33;;;;;;;;;;;;;;;5.26;78.65;101331.75;5043703;28;3375;-77
2022/10/20 12:42:59;;;;;;;;;;;;;;;5.27;78.49;101319.25;5041728;28;3296;-78
2022/10/20 12:45:26;;;;;;;;;;;;;;;5.28;78.77;101320.91;5040397;28;2473;-78
2022/10/20 12:47:52;;;;;;;;;;;;;;;5.29;78.65;101319.88;5044462;28;2094;-77
2022/10/20 12:50:18;;;;;;;;;;;;;;;5.29;78.84;101322.56;5041799;28;2014;-78
2022/10/20 12:52:44;;;;;;;;;;;;;;;5.29;78.84;101306.53;5042015;28;1906;-78